createdAt,value
2017-08-10T00:01:10.752Z,3.25
2017-08-10T00:03:38.296Z,4.03
2017-08-10T00:06:09.135Z,3.42
2017-08-10T00:08:36.668Z,3.85
2017-08-10T00:11:04.233Z,3.75
2017-08-10T00:13:31.727Z,3.12
2017-08-10T00:15:59.275Z,3.55
2017-08-10T00:18:26.811Z,3.50
2017-08-10T00:20:58.182Z,3.30
2017-08-10T00:23:25.729Z,4.43
2017-08-10T00:25:53.246Z,5.28
2017-08-10T00:28:20.882Z,5.15
2017-08-10T00:30:48.405Z,4.45
2017-08-10T00:33:16.066Z,5.32
2017-08-10T00:35:43.640Z,5.53
2017-08-10T00:38:11.211Z,6.27
2017-08-10T00:40:38.818Z,4.37
2017-08-10T00:43:07.492Z,5.18
2017-08-10T00:45:35.803Z,4.10
2017-08-10T00:48:03.311Z,5.70
2017-08-10T00:50:30.835Z,4.70
2017-08-10T00:52:58.620Z,5.65
2017-08-10T00:55:26.256Z,4.82
2017-08-10T00:57:53.809Z,5.20
2017-08-10T01:00:21.415Z,5.65
2017-08-10T01:02:48.935Z,5.20
2017-08-10T01:05:16.441Z,5.57
2017-08-10T01:07:43.999Z,5.28
2017-08-10T01:10:11.576Z,6.05
2017-08-10T01:12:39.385Z,5.87
2017-08-10T01:15:07.456Z,5.25
2017-08-10T01:17:34.954Z,5.10
2017-08-10T01:20:02.574Z,4.22
2017-08-10T01:22:33.821Z,5.20
2017-08-10T01:25:01.314Z,5.25
2017-08-10T01:27:29.036Z,4.90
2017-08-10T01:29:56.795Z,4.70
2017-08-10T01:32:25.243Z,5.30
2017-08-10T01:34:53.572Z,5.20
2017-08-10T01:37:21.121Z,5.50
2017-08-10T01:39:48.732Z,4.37
2017-08-10T01:42:16.548Z,5.10
2017-08-10T01:44:44.089Z,4.95
2017-08-10T01:47:11.717Z,5.45
2017-08-10T01:49:39.219Z,5.22
2017-08-10T01:52:06.724Z,5.53
2017-08-10T01:54:38.428Z,4.47
2017-08-10T01:57:05.931Z,4.65
2017-08-10T01:59:33.434Z,3.60
2017-08-10T02:02:01.335Z,4.95
2017-08-10T02:04:28.844Z,4.43
2017-08-10T02:06:56.391Z,4.25
2017-08-10T02:09:25.024Z,4.32
2017-08-10T02:11:52.839Z,4.65
2017-08-10T02:14:21.167Z,4.05
2017-08-10T02:16:48.667Z,4.43
2017-08-10T02:19:16.408Z,4.28
2017-08-10T02:21:52.159Z,4.43
2017-08-10T02:24:19.668Z,4.40
2017-08-10T02:26:47.607Z,4.40
2017-08-10T02:29:15.136Z,4.35
2017-08-10T02:31:42.898Z,4.35
2017-08-10T02:34:10.636Z,4.50
2017-08-10T02:36:38.156Z,4.65
2017-08-10T02:39:05.877Z,4.68
2017-08-10T02:41:33.436Z,5.35
2017-08-10T02:44:01.269Z,4.75
2017-08-10T02:46:28.860Z,4.50
2017-08-10T02:48:56.387Z,5.03
2017-08-10T02:51:23.961Z,5.00
2017-08-10T02:53:51.459Z,4.90
2017-08-10T02:56:19.012Z,4.87
2017-08-10T02:58:46.527Z,5.10
2017-08-10T03:01:14.036Z,5.35
2017-08-10T03:03:41.570Z,5.53
2017-08-10T03:06:09.071Z,5.90
2017-08-10T03:08:36.635Z,6.35
2017-08-10T03:11:04.140Z,5.68
2017-08-10T03:13:31.810Z,5.20
2017-08-10T03:15:59.327Z,6.90
2017-08-10T03:18:27.603Z,5.40
2017-08-10T03:20:55.175Z,6.00
2017-08-10T03:23:22.680Z,5.20
2017-08-10T03:25:50.253Z,6.65
2017-08-10T03:28:17.769Z,4.93
2017-08-10T03:30:45.300Z,5.55
2017-08-10T03:33:13.937Z,4.62
2017-08-10T03:35:41.447Z,6.00
2017-08-10T03:38:09.744Z,6.18
2017-08-10T03:40:37.518Z,6.20
2017-08-10T03:43:05.023Z,5.78
2017-08-10T03:45:32.685Z,6.45
2017-08-10T03:48:00.239Z,5.40
2017-08-10T03:50:30.726Z,5.68
2017-08-10T03:52:58.347Z,5.87
2017-08-10T03:55:25.917Z,4.82
2017-08-10T03:57:53.591Z,4.62
2017-08-10T04:00:21.439Z,5.00
2017-08-10T04:02:49.013Z,4.87
2017-08-10T04:05:16.643Z,5.55
2017-08-10T04:07:44.208Z,5.72
2017-08-10T04:10:12.503Z,6.67
2017-08-10T04:12:40.298Z,5.12
2017-08-10T04:15:07.799Z,4.72
2017-08-10T04:17:35.310Z,5.22
2017-08-10T04:20:02.824Z,5.93
2017-08-10T04:22:37.358Z,6.15
2017-08-10T04:25:04.867Z,7.50
2017-08-10T04:27:32.526Z,5.47
2017-08-10T04:30:00.635Z,5.47
2017-08-10T04:32:28.131Z,5.00
2017-08-10T04:34:59.476Z,5.15
2017-08-10T04:37:27.099Z,5.03
2017-08-10T04:39:54.636Z,5.10
2017-08-10T04:42:22.378Z,4.35
2017-08-10T04:44:49.920Z,5.03
2017-08-10T04:47:17.574Z,4.50
2017-08-10T04:49:45.100Z,5.00
2017-08-10T04:52:12.616Z,4.70
2017-08-10T04:54:40.174Z,3.85
2017-08-10T04:57:07.740Z,4.28
2017-08-10T04:59:35.266Z,5.47
2017-08-10T05:02:02.875Z,5.03
2017-08-10T05:04:30.718Z,4.93
2017-08-10T05:07:02.351Z,3.90
2017-08-10T05:09:29.902Z,4.75
2017-08-10T05:11:57.403Z,4.50
2017-08-10T05:14:25.151Z,3.90
2017-08-10T05:16:53.243Z,4.55
2017-08-10T05:19:20.783Z,4.05
2017-08-10T05:21:51.925Z,4.18
2017-08-10T05:24:19.433Z,3.65
2017-08-10T05:26:46.975Z,4.87
2017-08-10T05:29:14.540Z,4.62
2017-08-10T05:31:42.373Z,4.82
2017-08-10T05:34:10.975Z,3.87
2017-08-10T05:36:43.123Z,4.20
2017-08-10T05:39:10.785Z,4.93
2017-08-10T05:41:38.535Z,3.50
2017-08-10T05:44:06.054Z,3.67
2017-08-10T05:46:33.565Z,3.97
2017-08-10T05:49:01.201Z,4.63
2017-08-10T05:51:28.991Z,3.70
2017-08-10T05:53:56.579Z,3.97
2017-08-10T05:56:24.235Z,4.37
2017-08-10T05:58:51.735Z,4.05
2017-08-10T06:01:20.368Z,4.32
2017-08-10T06:03:47.879Z,3.90
2017-08-10T06:06:15.433Z,4.68
2017-08-10T06:08:47.024Z,5.18
2017-08-10T06:11:14.535Z,3.65
2017-08-10T06:13:43.784Z,4.30
2017-08-10T06:16:11.536Z,3.75
2017-08-10T06:18:39.079Z,4.40
2017-08-10T06:21:06.578Z,4.15
2017-08-10T06:23:34.132Z,4.25
2017-08-10T06:26:01.654Z,4.62
2017-08-10T06:28:29.221Z,4.07
2017-08-10T06:30:56.900Z,4.37
2017-08-10T06:33:24.915Z,4.13
2017-08-10T06:35:52.420Z,3.87
2017-08-10T06:38:19.928Z,3.15
2017-08-10T06:40:49.166Z,3.42
2017-08-10T06:43:16.667Z,3.65
2017-08-10T06:45:44.407Z,4.32
2017-08-10T06:48:11.972Z,3.72
2017-08-10T06:50:39.476Z,4.25
2017-08-10T06:53:06.983Z,4.63
2017-08-10T06:55:34.652Z,4.60
2017-08-10T06:58:02.584Z,4.85
2017-08-10T07:00:30.367Z,4.93
2017-08-10T07:02:57.905Z,4.53
2017-08-10T07:05:26.185Z,4.10
2017-08-10T07:07:54.325Z,4.10
2017-08-10T07:10:23.900Z,4.00
2017-08-10T07:12:51.903Z,4.75
2017-08-10T07:15:19.720Z,5.37
2017-08-10T07:17:47.231Z,5.80
2017-08-10T07:20:14.741Z,5.00
2017-08-10T07:22:42.680Z,5.07
2017-08-10T07:25:10.183Z,4.87
2017-08-10T07:27:37.680Z,5.75
2017-08-10T07:30:05.369Z,4.55
2017-08-10T07:32:32.868Z,4.53
2017-08-10T07:35:00.377Z,5.27
2017-08-10T07:37:27.900Z,4.90
2017-08-10T07:39:55.481Z,5.85
2017-08-10T07:42:22.991Z,4.80
2017-08-10T07:44:50.664Z,5.57
2017-08-10T07:47:18.223Z,6.07
2017-08-10T07:49:45.730Z,5.72
2017-08-10T07:52:14.029Z,5.60
2017-08-10T07:54:45.932Z,6.05
2017-08-10T07:57:13.977Z,6.25
2017-08-10T07:59:41.584Z,6.17
2017-08-10T08:02:09.090Z,6.25
2017-08-10T08:04:36.804Z,6.28
2017-08-10T08:07:04.328Z,6.60
2017-08-10T08:09:31.851Z,7.47
2017-08-10T08:11:59.532Z,6.93
2017-08-10T08:14:27.299Z,6.95
2017-08-10T08:16:54.856Z,6.93
2017-08-10T08:19:22.523Z,6.72
2017-08-10T08:21:50.026Z,8.45
2017-08-10T08:24:20.805Z,7.40
2017-08-10T08:26:48.306Z,8.05
2017-08-10T08:29:16.665Z,8.63
2017-08-10T08:31:44.228Z,7.22
2017-08-10T08:34:12.088Z,7.62
2017-08-10T08:36:39.635Z,7.45
2017-08-10T08:39:14.451Z,7.97
2017-08-10T08:41:42.008Z,8.03
2017-08-10T08:44:09.546Z,8.65
2017-08-10T08:46:37.055Z,7.50
2017-08-10T08:49:04.572Z,9.20
2017-08-10T08:51:32.347Z,8.35
2017-08-10T08:54:00.126Z,8.50
2017-08-10T08:56:28.800Z,8.32
2017-08-10T08:58:56.313Z,9.32
2017-08-10T09:01:23.978Z,10.67
2017-08-10T09:03:51.566Z,10.18
2017-08-10T09:06:19.077Z,8.70
2017-08-10T09:08:46.721Z,10.85
2017-08-10T09:11:14.239Z,9.90
2017-08-10T09:13:42.190Z,10.63
2017-08-10T09:16:09.702Z,9.88
2017-08-10T09:18:37.207Z,11.37
2017-08-10T09:21:05.504Z,10.10
2017-08-10T09:23:33.020Z,11.12
2017-08-10T09:26:06.212Z,10.88
2017-08-10T09:28:33.723Z,9.48
2017-08-10T09:31:01.475Z,9.85
2017-08-10T09:33:29.271Z,10.18
2017-08-10T09:35:57.284Z,11.17
2017-08-10T09:38:24.811Z,11.48
2017-08-10T09:40:56.249Z,9.90
2017-08-10T09:43:23.938Z,10.77
2017-08-10T09:45:51.474Z,9.90
2017-08-10T09:48:20.068Z,10.60
2017-08-10T09:50:47.718Z,10.70
2017-08-10T09:53:15.295Z,10.40
2017-08-10T09:55:42.844Z,11.52
2017-08-10T09:58:10.361Z,8.88
2017-08-10T10:00:37.869Z,9.85
2017-08-10T10:03:05.508Z,11.18
2017-08-10T10:05:33.022Z,11.75
2017-08-10T10:08:01.299Z,12.87
2017-08-10T10:10:28.810Z,10.93
2017-08-10T10:12:56.329Z,11.25
2017-08-10T10:15:24.612Z,11.00
2017-08-10T10:17:52.115Z,11.88
2017-08-10T10:20:19.623Z,10.82
2017-08-10T10:22:48.135Z,11.97
2017-08-10T10:25:15.695Z,13.07
2017-08-10T10:27:43.204Z,12.70
2017-08-10T10:30:13.483Z,11.88
2017-08-10T10:32:41.019Z,11.20
2017-08-10T10:35:08.536Z,10.95
2017-08-10T10:37:36.091Z,11.70
2017-08-10T10:40:03.627Z,13.40
2017-08-10T10:42:35.879Z,12.30
2017-08-10T10:45:03.392Z,11.90
2017-08-10T10:47:31.705Z,10.88
2017-08-10T10:49:59.290Z,11.45
2017-08-10T10:52:27.142Z,12.97
2017-08-10T10:54:54.675Z,11.93
2017-08-10T10:57:26.667Z,13.70
2017-08-10T10:59:54.202Z,16.12
2017-08-10T11:02:21.831Z,12.60
2017-08-10T11:04:49.396Z,13.15
2017-08-10T11:07:16.935Z,12.35
2017-08-10T11:09:44.570Z,13.05
2017-08-10T11:12:12.075Z,12.55
2017-08-10T11:14:39.623Z,13.10
2017-08-10T11:17:07.179Z,13.48
2017-08-10T11:19:34.708Z,12.77
2017-08-10T11:22:02.257Z,11.98
2017-08-10T11:24:29.772Z,12.13
2017-08-10T11:26:58.116Z,13.55
2017-08-10T11:29:25.665Z,11.88
2017-08-10T11:31:53.192Z,12.45
2017-08-10T11:34:20.810Z,15.13
2017-08-10T11:36:48.521Z,14.27
2017-08-10T11:39:16.100Z,14.52
2017-08-10T11:41:43.620Z,12.93
2017-08-10T11:44:11.135Z,14.27
2017-08-10T11:46:38.691Z,15.77
2017-08-10T11:49:06.220Z,13.10
2017-08-10T11:51:34.009Z,13.82
2017-08-10T11:54:01.628Z,14.30
2017-08-10T11:56:29.920Z,12.32
2017-08-10T11:59:01.224Z,13.90
2017-08-10T12:01:28.737Z,14.15
2017-08-10T12:03:56.710Z,14.37
2017-08-10T12:06:24.282Z,11.88
2017-08-10T12:08:51.811Z,14.10
2017-08-10T12:11:19.371Z,12.57
2017-08-10T12:13:50.873Z,13.13
2017-08-10T12:16:18.416Z,14.57
2017-08-10T12:18:45.976Z,13.62
2017-08-10T12:21:13.559Z,13.98
2017-08-10T12:23:41.111Z,13.43
2017-08-10T12:26:08.728Z,12.80
2017-08-10T12:28:43.568Z,11.65
2017-08-10T12:31:11.599Z,14.52
2017-08-10T12:33:39.188Z,13.63
2017-08-10T12:36:07.179Z,13.00
2017-08-10T12:38:35.345Z,13.23
2017-08-10T12:41:02.860Z,13.62
2017-08-10T12:43:32.924Z,13.80
2017-08-10T12:46:00.563Z,13.65
2017-08-10T12:48:28.088Z,15.80
2017-08-10T12:50:55.664Z,13.70
2017-08-10T12:53:23.204Z,15.48
2017-08-10T12:55:50.813Z,14.85
2017-08-10T12:58:18.336Z,15.23
2017-08-10T13:00:45.855Z,13.90
2017-08-10T13:03:13.411Z,14.70
2017-08-10T13:05:40.920Z,15.20
2017-08-10T13:08:08.623Z,15.30
2017-08-10T13:10:36.201Z,16.37
2017-08-10T13:13:03.735Z,15.02
2017-08-10T13:15:31.310Z,15.27
2017-08-10T13:17:58.854Z,15.63
2017-08-10T13:20:26.926Z,15.30
2017-08-10T13:22:54.483Z,14.68
2017-08-10T13:25:21.994Z,16.37
2017-08-10T13:27:49.544Z,15.65
2017-08-10T13:30:17.064Z,14.60
2017-08-10T13:32:44.842Z,14.20
2017-08-10T13:35:12.355Z,14.03
2017-08-10T13:37:40.040Z,14.43
2017-08-10T13:40:07.642Z,14.07
2017-08-10T13:42:36.176Z,15.10
2017-08-10T13:45:07.637Z,14.32
2017-08-10T13:47:35.298Z,14.65
2017-08-10T13:50:03.104Z,15.00
2017-08-10T13:52:30.622Z,17.52
2017-08-10T13:54:58.130Z,17.60
2017-08-10T13:57:26.412Z,16.08
2017-08-10T13:59:53.941Z,17.52
2017-08-10T14:02:21.942Z,17.70
2017-08-10T14:04:49.511Z,17.15
2017-08-10T14:07:17.208Z,16.50
2017-08-10T14:09:44.971Z,16.20
2017-08-10T14:12:12.737Z,16.30
2017-08-10T14:14:41.012Z,15.90
2017-08-10T14:17:08.568Z,17.70
2017-08-10T14:19:36.323Z,18.05
2017-08-10T14:22:04.354Z,17.00
2017-08-10T14:24:32.164Z,17.90
2017-08-10T14:27:00.041Z,18.98
2017-08-10T14:29:27.972Z,17.10
2017-08-10T14:31:55.476Z,18.20
2017-08-10T14:34:23.029Z,17.62
2017-08-10T14:36:50.686Z,15.85
2017-08-10T14:39:18.244Z,16.92
2017-08-10T14:41:45.752Z,17.98
2017-08-10T14:44:13.616Z,15.98
2017-08-10T14:46:43.915Z,18.33
2017-08-10T14:49:11.435Z,15.68
2017-08-10T14:51:39.159Z,15.38
2017-08-10T14:54:07.189Z,17.52
2017-08-10T14:56:34.952Z,17.08
2017-08-10T14:59:02.708Z,18.35
2017-08-10T15:01:30.219Z,14.82
2017-08-10T15:03:58.021Z,16.30
2017-08-10T15:06:25.540Z,15.90
2017-08-10T15:08:53.451Z,18.12
2017-08-10T15:11:21.260Z,16.87
2017-08-10T15:13:48.783Z,16.83
2017-08-10T15:16:16.359Z,16.70
2017-08-10T15:18:43.887Z,17.05
2017-08-10T15:21:11.947Z,15.73
2017-08-10T15:23:39.726Z,17.08
2017-08-10T15:26:07.503Z,19.80
2017-08-10T15:28:35.008Z,19.42
2017-08-10T15:31:04.564Z,17.37
2017-08-10T15:33:32.115Z,20.67
2017-08-10T15:35:59.620Z,21.23
2017-08-10T15:38:27.495Z,20.23
2017-08-10T15:40:55.052Z,21.00
2017-08-10T15:43:22.640Z,22.60
2017-08-10T15:45:50.148Z,24.33
2017-08-10T15:48:17.705Z,25.02
2017-08-10T15:50:45.262Z,24.77
2017-08-10T15:53:12.775Z,26.33
2017-08-10T15:55:40.289Z,25.80
2017-08-10T15:58:07.871Z,27.48
2017-08-10T16:00:35.916Z,26.27
2017-08-10T16:03:03.476Z,26.62
2017-08-10T16:05:31.115Z,26.45
2017-08-10T16:07:58.614Z,28.80
2017-08-10T16:10:26.148Z,27.77
2017-08-10T16:12:53.652Z,25.33
2017-08-10T16:15:21.223Z,28.27
2017-08-10T16:17:48.728Z,28.23
2017-08-10T16:20:16.235Z,28.60
2017-08-10T16:22:43.949Z,24.70
2017-08-10T16:25:11.490Z,27.58
2017-08-10T16:27:39.115Z,28.95
2017-08-10T16:30:06.631Z,28.00
2017-08-10T16:32:38.673Z,26.60
2017-08-10T16:35:06.187Z,24.12
2017-08-10T16:37:34.476Z,11.27
2017-08-10T16:40:02.212Z,5.93
2017-08-10T16:42:29.842Z,6.27
2017-08-10T16:44:57.358Z,3.58
2017-08-10T16:47:28.331Z,2.58
2017-08-10T16:49:55.832Z,2.47
2017-08-10T16:52:23.371Z,2.08
2017-08-10T16:54:50.876Z,1.60
2017-08-10T16:57:18.422Z,1.90
2017-08-10T16:59:46.135Z,1.30
2017-08-10T17:02:13.646Z,0.90
2017-08-10T17:04:41.160Z,1.20
2017-08-10T17:07:08.658Z,1.48
2017-08-10T17:09:36.209Z,1.48
2017-08-10T17:12:03.744Z,1.60
2017-08-10T17:14:31.287Z,1.33
2017-08-10T17:16:58.778Z,2.00
2017-08-10T17:19:26.332Z,1.83
2017-08-10T17:21:53.830Z,1.15
2017-08-10T17:24:21.518Z,1.17
2017-08-10T17:26:49.099Z,1.35
2017-08-10T17:29:16.632Z,3.65
2017-08-10T17:31:44.152Z,1.75
2017-08-10T17:34:12.428Z,2.20
2017-08-10T17:36:39.980Z,1.52
2017-08-10T17:39:08.252Z,1.60
2017-08-10T17:41:35.757Z,1.37
2017-08-10T17:44:03.260Z,1.27
2017-08-10T17:46:30.758Z,2.12
2017-08-10T17:48:58.272Z,1.52
2017-08-10T17:51:26.131Z,3.20
2017-08-10T17:53:53.627Z,1.30
2017-08-10T17:56:21.135Z,1.27
2017-08-10T17:58:48.634Z,1.00
2017-08-10T18:01:16.919Z,0.90
2017-08-10T18:03:44.447Z,0.85
2017-08-10T18:06:11.973Z,1.27
2017-08-10T18:08:39.739Z,0.80
2017-08-10T18:11:07.344Z,1.23
2017-08-10T18:13:35.204Z,0.80
2017-08-10T18:16:02.719Z,1.50
2017-08-10T18:18:33.149Z,0.80
2017-08-10T18:21:00.721Z,1.55
2017-08-10T18:23:28.214Z,0.90
2017-08-10T18:25:55.747Z,0.80
2017-08-10T18:28:23.251Z,0.90
2017-08-10T18:30:50.820Z,1.85
2017-08-10T18:33:18.416Z,0.70
2017-08-10T18:35:46.067Z,1.00
2017-08-10T18:38:13.631Z,0.80
2017-08-10T18:40:43.275Z,1.40
2017-08-10T18:43:10.815Z,1.70
2017-08-10T18:45:38.807Z,2.22
2017-08-10T18:48:06.315Z,1.27
2017-08-10T18:50:33.831Z,1.27
2017-08-10T18:53:04.363Z,1.58
2017-08-10T18:55:32.668Z,2.20
2017-08-10T18:58:00.194Z,2.03
2017-08-10T19:00:28.483Z,2.10
2017-08-10T19:02:55.983Z,1.87
2017-08-10T19:05:23.486Z,2.08
2017-08-10T19:07:51.446Z,2.00
2017-08-10T19:10:19.015Z,2.00
2017-08-10T19:12:47.307Z,2.20
2017-08-10T19:15:14.839Z,1.85
2017-08-10T19:17:42.835Z,1.90
2017-08-10T19:20:10.368Z,1.60
2017-08-10T19:22:37.879Z,1.73
2017-08-10T19:25:05.415Z,1.85
2017-08-10T19:27:33.055Z,2.12
2017-08-10T19:30:01.732Z,1.98
2017-08-10T19:32:29.262Z,2.10
2017-08-10T19:34:56.919Z,2.85
2017-08-10T19:37:28.360Z,2.30
2017-08-10T19:39:56.372Z,2.70
2017-08-10T19:42:23.933Z,2.50
2017-08-10T19:44:51.790Z,2.78
2017-08-10T19:47:19.500Z,3.30
2017-08-10T19:49:47.072Z,2.90
2017-08-10T19:52:19.247Z,3.12
2017-08-10T19:54:47.739Z,2.67
2017-08-10T19:57:15.244Z,3.47
2017-08-10T19:59:42.808Z,3.50
2017-08-10T20:02:10.329Z,4.27
2017-08-10T20:04:37.913Z,3.35
2017-08-10T20:07:05.506Z,3.80
2017-08-10T20:09:33.040Z,3.40
2017-08-10T20:12:05.371Z,4.47
2017-08-10T20:14:32.928Z,4.55
2017-08-10T20:17:00.596Z,3.55
2017-08-10T20:19:28.136Z,3.45
2017-08-10T20:21:58.627Z,3.40
2017-08-10T20:24:26.888Z,3.60
2017-08-10T20:26:55.315Z,4.12
2017-08-10T20:29:22.815Z,3.53
2017-08-10T20:31:50.415Z,3.90
2017-08-10T20:34:17.950Z,4.68
2017-08-10T20:36:45.497Z,4.53
2017-08-10T20:39:17.525Z,4.37
2017-08-10T20:41:45.079Z,3.85
2017-08-10T20:44:13.557Z,4.60
2017-08-10T20:46:41.081Z,5.23
2017-08-10T20:49:08.596Z,4.97
2017-08-10T20:51:40.100Z,4.65
2017-08-10T20:54:08.368Z,5.70
2017-08-10T20:56:35.907Z,4.78
2017-08-10T20:59:03.399Z,5.95
2017-08-10T21:01:30.914Z,6.65
2017-08-10T21:03:58.443Z,5.25
2017-08-10T21:06:30.000Z,6.28
2017-08-10T21:08:58.603Z,7.07
2017-08-10T21:11:26.120Z,7.00
2017-08-10T21:13:53.618Z,6.97
2017-08-10T21:16:21.155Z,8.50
2017-08-10T21:18:49.559Z,8.23
2017-08-10T21:21:17.440Z,9.50
2017-08-10T21:23:48.627Z,9.35
2017-08-10T21:26:16.167Z,8.70
2017-08-10T21:28:44.459Z,9.18
2017-08-10T21:31:11.963Z,9.85
2017-08-10T21:33:39.522Z,9.57
2017-08-10T21:36:07.153Z,11.50
2017-08-10T21:38:39.326Z,11.15
2017-08-10T21:41:07.230Z,12.70
2017-08-10T21:43:34.830Z,11.38
2017-08-10T21:46:02.590Z,14.30
2017-08-10T21:48:30.107Z,12.60
2017-08-10T21:50:57.762Z,11.63
2017-08-10T21:53:29.798Z,12.80
2017-08-10T21:55:57.319Z,12.45
2017-08-10T21:58:25.648Z,12.30
2017-08-10T22:00:53.395Z,12.50
2017-08-10T22:03:20.937Z,12.52
2017-08-10T22:05:48.444Z,12.40
2017-08-10T22:08:19.765Z,13.15
2017-08-10T22:10:47.303Z,12.48
2017-08-10T22:13:14.824Z,12.55
2017-08-10T22:15:42.380Z,13.48
2017-08-10T22:18:09.896Z,11.80
2017-08-10T22:20:37.658Z,12.18
2017-08-10T22:23:08.765Z,11.57
2017-08-10T22:25:37.422Z,11.48
2017-08-10T22:28:04.931Z,11.65
2017-08-10T22:30:32.441Z,11.63
2017-08-10T22:33:00.268Z,12.32
2017-08-10T22:35:27.796Z,12.77
2017-08-10T22:37:55.307Z,12.07
2017-08-10T22:40:26.634Z,11.93
2017-08-10T22:42:55.051Z,12.10
2017-08-10T22:45:22.964Z,13.40
2017-08-10T22:47:50.476Z,12.13
2017-08-10T22:50:18.034Z,12.20
2017-08-10T22:52:45.536Z,12.43
2017-08-10T22:55:13.087Z,12.30
2017-08-10T22:57:40.639Z,11.20
2017-08-10T23:00:09.361Z,11.70
2017-08-10T23:02:36.870Z,10.27
2017-08-10T23:05:04.389Z,11.43
2017-08-10T23:07:31.903Z,10.65
2017-08-10T23:09:59.703Z,10.18
2017-08-10T23:12:27.212Z,11.98
2017-08-10T23:14:56.088Z,11.82
2017-08-10T23:17:23.607Z,10.68
2017-08-10T23:19:51.371Z,11.43
2017-08-10T23:22:19.076Z,10.60
2017-08-10T23:24:46.635Z,10.47
2017-08-10T23:27:14.153Z,10.20
2017-08-10T23:29:42.120Z,12.10
2017-08-10T23:32:09.639Z,12.00
2017-08-10T23:34:37.153Z,11.55
2017-08-10T23:37:05.667Z,11.35
2017-08-10T23:39:35.656Z,12.48
2017-08-10T23:42:03.197Z,11.48
2017-08-10T23:44:30.704Z,12.20
2017-08-10T23:46:58.848Z,11.75
2017-08-10T23:49:26.692Z,11.85
2017-08-10T23:51:54.265Z,12.55
2017-08-10T23:54:25.308Z,13.15
2017-08-10T23:56:52.845Z,11.88
2017-08-10T23:59:20.349Z,12.18
